sensor_id;sensor_type;location;lat;lon;timestamp;P1;durP1;ratioP1;P2;durP2;ratioP2
11328;SDS011;5719;42.714;23.732;2022-09-12T00:02:11;13.68;;;10.52;;
11328;SDS011;5719;42.714;23.732;2022-09-12T00:04:39;14.73;;;11.95;;
11328;SDS011;5719;42.714;23.732;2022-09-12T00:07:06;15.65;;;12.30;;
11328;SDS011;5719;42.714;23.732;2022-09-12T00:09:33;16.73;;;13.30;;
11328;SDS011;5719;42.714;23.732;2022-09-12T00:12:00;14.77;;;10.90;;
11328;SDS011;5719;42.714;23.732;2022-09-12T00:14:27;15.80;;;12.15;;
11328;SDS011;5719;42.714;23.732;2022-09-12T00:16:56;14.80;;;12.27;;
11328;SDS011;5719;42.714;23.732;2022-09-12T00:19:23;15.10;;;11.65;;
11328;SDS011;5719;42.714;23.732;2022-09-12T00:21:52;17.08;;;11.57;;
11328;SDS011;5719;42.714;23.732;2022-09-12T00:24:19;12.35;;;10.65;;
11328;SDS011;5719;42.714;23.732;2022-09-12T00:26:46;15.35;;;11.43;;
11328;SDS011;5719;42.714;23.732;2022-09-12T00:29:13;15.02;;;11.25;;
11328;SDS011;5719;42.714;23.732;2022-09-12T00:31:41;14.18;;;10.18;;
11328;SDS011;5719;42.714;23.732;2022-09-12T00:34:08;11.25;;;9.40;;
11328;SDS011;5719;42.714;23.732;2022-09-12T00:36:36;10.18;;;9.10;;
11328;SDS011;5719;42.714;23.732;2022-09-12T00:39:06;10.35;;;9.35;;
11328;SDS011;5719;42.714;23.732;2022-09-12T00:41:34;12.90;;;8.50;;
11328;SDS011;5719;42.714;23.732;2022-09-12T00:47:04;8.20;;;7.38;;
11328;SDS011;5719;42.714;23.732;2022-09-12T00:49:38;8.73;;;6.95;;
11328;SDS011;5719;42.714;23.732;2022-09-12T00:52:11;10.85;;;6.90;;
11328;SDS011;5719;42.714;23.732;2022-09-12T00:54:42;8.10;;;7.28;;
11328;SDS011;5719;42.714;23.732;2022-09-12T00:57:15;14.45;;;7.88;;
11328;SDS011;5719;42.714;23.732;2022-09-12T00:59:43;7.80;;;6.78;;
11328;SDS011;5719;42.714;23.732;2022-09-12T01:02:14;9.63;;;7.20;;
11328;SDS011;5719;42.714;23.732;2022-09-12T01:04:41;7.80;;;6.60;;
11328;SDS011;5719;42.714;23.732;2022-09-12T01:07:09;7.00;;;6.10;;
11328;SDS011;5719;42.714;23.732;2022-09-12T01:09:39;7.57;;;6.78;;
11328;SDS011;5719;42.714;23.732;2022-09-12T01:12:10;8.32;;;7.40;;
11328;SDS011;5719;42.714;23.732;2022-09-12T01:14:39;9.27;;;7.63;;
11328;SDS011;5719;42.714;23.732;2022-09-12T01:17:06;10.23;;;8.32;;
11328;SDS011;5719;42.714;23.732;2022-09-12T01:22:43;10.18;;;9.05;;
11328;SDS011;5719;42.714;23.732;2022-09-12T01:25:25;10.57;;;7.95;;
11328;SDS011;5719;42.714;23.732;2022-09-12T01:28:07;10.75;;;9.07;;
11328;SDS011;5719;42.714;23.732;2022-09-12T01:30:58;11.43;;;8.82;;
11328;SDS011;5719;42.714;23.732;2022-09-12T01:33:33;10.93;;;8.93;;
11328;SDS011;5719;42.714;23.732;2022-09-12T01:36:14;10.18;;;8.10;;
11328;SDS011;5719;42.714;23.732;2022-09-12T01:38:55;8.68;;;7.80;;
11328;SDS011;5719;42.714;23.732;2022-09-12T01:41:26;10.10;;;8.10;;
11328;SDS011;5719;42.714;23.732;2022-09-12T01:43:59;10.25;;;8.07;;
11328;SDS011;5719;42.714;23.732;2022-09-12T01:46:33;10.07;;;7.75;;
11328;SDS011;5719;42.714;23.732;2022-09-12T01:49:08;7.90;;;7.18;;
11328;SDS011;5719;42.714;23.732;2022-09-12T01:51:41;6.97;;;6.28;;
11328;SDS011;5719;42.714;23.732;2022-09-12T01:54:12;7.20;;;6.05;;
11328;SDS011;5719;42.714;23.732;2022-09-12T01:56:44;7.80;;;6.28;;
11328;SDS011;5719;42.714;23.732;2022-09-12T01:59:17;6.30;;;5.70;;
11328;SDS011;5719;42.714;23.732;2022-09-12T02:01:51;10.52;;;6.55;;
11328;SDS011;5719;42.714;23.732;2022-09-12T02:04:23;7.53;;;6.18;;
11328;SDS011;5719;42.714;23.732;2022-09-12T02:06:54;6.68;;;6.07;;
11328;SDS011;5719;42.714;23.732;2022-09-12T02:09:28;6.05;;;5.55;;
11328;SDS011;5719;42.714;23.732;2022-09-12T02:12:00;6.57;;;6.00;;
11328;SDS011;5719;42.714;23.732;2022-09-12T02:14:30;6.05;;;5.55;;
11328;SDS011;5719;42.714;23.732;2022-09-12T02:17:05;6.60;;;5.90;;
11328;SDS011;5719;42.714;23.732;2022-09-12T02:19:35;5.85;;;5.35;;
11328;SDS011;5719;42.714;23.732;2022-09-12T02:22:06;6.50;;;5.90;;
11328;SDS011;5719;42.714;23.732;2022-09-12T02:24:39;6.32;;;5.72;;
11328;SDS011;5719;42.714;23.732;2022-09-12T02:27:13;6.57;;;5.97;;
11328;SDS011;5719;42.714;23.732;2022-09-12T02:29:42;6.53;;;5.60;;
11328;SDS011;5719;42.714;23.732;2022-09-12T02:32:14;6.40;;;5.90;;
11328;SDS011;5719;42.714;23.732;2022-09-12T02:34:51;7.72;;;6.53;;
11328;SDS011;5719;42.714;23.732;2022-09-12T02:37:24;8.95;;;6.90;;
11328;SDS011;5719;42.714;23.732;2022-09-12T02:40:00;6.57;;;5.97;;
11328;SDS011;5719;42.714;23.732;2022-09-12T02:42:27;7.45;;;6.75;;
11328;SDS011;5719;42.714;23.732;2022-09-12T02:44:54;8.82;;;8.02;;
11328;SDS011;5719;42.714;23.732;2022-09-12T02:47:25;9.30;;;8.23;;
11328;SDS011;5719;42.714;23.732;2022-09-12T02:52:23;9.23;;;8.27;;
11328;SDS011;5719;42.714;23.732;2022-09-12T02:54:51;14.05;;;9.40;;
11328;SDS011;5719;42.714;23.732;2022-09-12T02:57:19;10.30;;;9.10;;
11328;SDS011;5719;42.714;23.732;2022-09-12T02:59:47;11.70;;;8.95;;
11328;SDS011;5719;42.714;23.732;2022-09-12T03:02:21;13.52;;;9.05;;
11328;SDS011;5719;42.714;23.732;2022-09-12T03:05:07;10.52;;;9.43;;
11328;SDS011;5719;42.714;23.732;2022-09-12T03:07:53;12.45;;;10.23;;
11328;SDS011;5719;42.714;23.732;2022-09-12T03:13:01;11.10;;;8.73;;
11328;SDS011;5719;42.714;23.732;2022-09-12T03:15:39;11.75;;;8.20;;
11328;SDS011;5719;42.714;23.732;2022-09-12T03:18:19;9.80;;;8.38;;
11328;SDS011;5719;42.714;23.732;2022-09-12T03:20:57;10.13;;;8.00;;
11328;SDS011;5719;42.714;23.732;2022-09-12T03:23:30;8.60;;;7.70;;
11328;SDS011;5719;42.714;23.732;2022-09-12T03:26:04;12.70;;;8.02;;
11328;SDS011;5719;42.714;23.732;2022-09-12T03:28:34;8.23;;;7.53;;
11328;SDS011;5719;42.714;23.732;2022-09-12T03:31:10;10.45;;;7.45;;
11328;SDS011;5719;42.714;23.732;2022-09-12T03:33:40;9.20;;;7.40;;
11328;SDS011;5719;42.714;23.732;2022-09-12T03:36:10;8.80;;;6.70;;
11328;SDS011;5719;42.714;23.732;2022-09-12T03:38:41;9.23;;;6.05;;
11328;SDS011;5719;42.714;23.732;2022-09-12T03:41:08;6.13;;;5.45;;
11328;SDS011;5719;42.714;23.732;2022-09-12T03:43:34;6.20;;;5.57;;
11328;SDS011;5719;42.714;23.732;2022-09-12T03:46:01;8.00;;;6.40;;
11328;SDS011;5719;42.714;23.732;2022-09-12T03:48:28;9.38;;;6.30;;
11328;SDS011;5719;42.714;23.732;2022-09-12T03:50:59;7.32;;;6.32;;
11328;SDS011;5719;42.714;23.732;2022-09-12T03:53:26;6.80;;;6.10;;
11328;SDS011;5719;42.714;23.732;2022-09-12T03:55:54;9.20;;;5.70;;
11328;SDS011;5719;42.714;23.732;2022-09-12T03:58:21;7.00;;;6.32;;
11328;SDS011;5719;42.714;23.732;2022-09-12T04:00:48;6.32;;;5.78;;
11328;SDS011;5719;42.714;23.732;2022-09-12T04:03:15;7.05;;;5.80;;
11328;SDS011;5719;42.714;23.732;2022-09-12T04:05:43;7.15;;;5.90;;
11328;SDS011;5719;42.714;23.732;2022-09-12T04:08:12;5.75;;;5.00;;
11328;SDS011;5719;42.714;23.732;2022-09-12T04:10:39;10.75;;;6.93;;
11328;SDS011;5719;42.714;23.732;2022-09-12T04:13:06;7.80;;;6.75;;
11328;SDS011;5719;42.714;23.732;2022-09-12T04:15:32;10.80;;;7.25;;
11328;SDS011;5719;42.714;23.732;2022-09-12T04:17:59;7.97;;;7.18;;
11328;SDS011;5719;42.714;23.732;2022-09-12T04:20:26;7.88;;;6.70;;
11328;SDS011;5719;42.714;23.732;2022-09-12T04:22:53;11.30;;;7.07;;
11328;SDS011;5719;42.714;23.732;2022-09-12T04:25:21;8.05;;;7.13;;
11328;SDS011;5719;42.714;23.732;2022-09-12T04:27:48;7.72;;;6.75;;
11328;SDS011;5719;42.714;23.732;2022-09-12T04:30:15;9.75;;;6.57;;
11328;SDS011;5719;42.714;23.732;2022-09-12T04:32:42;8.85;;;5.28;;
11328;SDS011;5719;42.714;23.732;2022-09-12T04:35:09;5.32;;;4.85;;
11328;SDS011;5719;42.714;23.732;2022-09-12T04:37:36;6.32;;;5.43;;
11328;SDS011;5719;42.714;23.732;2022-09-12T04:40:04;6.57;;;5.93;;
11328;SDS011;5719;42.714;23.732;2022-09-12T04:42:33;7.35;;;6.00;;
11328;SDS011;5719;42.714;23.732;2022-09-12T04:44:59;7.93;;;5.35;;
11328;SDS011;5719;42.714;23.732;2022-09-12T04:47:27;5.57;;;5.07;;
11328;SDS011;5719;42.714;23.732;2022-09-12T04:49:54;6.78;;;5.53;;
11328;SDS011;5719;42.714;23.732;2022-09-12T04:52:21;5.65;;;5.15;;
11328;SDS011;5719;42.714;23.732;2022-09-12T04:54:48;7.13;;;6.43;;
11328;SDS011;5719;42.714;23.732;2022-09-12T04:57:15;7.45;;;5.80;;
11328;SDS011;5719;42.714;23.732;2022-09-12T04:59:43;7.90;;;6.15;;
11328;SDS011;5719;42.714;23.732;2022-09-12T05:02:10;10.30;;;6.53;;
11328;SDS011;5719;42.714;23.732;2022-09-12T05:04:37;8.52;;;6.00;;
11328;SDS011;5719;42.714;23.732;2022-09-12T05:07:03;10.80;;;6.22;;
11328;SDS011;5719;42.714;23.732;2022-09-12T05:09:31;5.53;;;4.97;;
11328;SDS011;5719;42.714;23.732;2022-09-12T05:11:57;7.05;;;6.03;;
11328;SDS011;5719;42.714;23.732;2022-09-12T05:14:25;13.82;;;8.55;;
11328;SDS011;5719;42.714;23.732;2022-09-12T05:16:53;13.00;;;9.55;;
11328;SDS011;5719;42.714;23.732;2022-09-12T05:19:23;12.73;;;9.73;;
11328;SDS011;5719;42.714;23.732;2022-09-12T05:21:50;12.68;;;10.27;;
11328;SDS011;5719;42.714;23.732;2022-09-12T05:24:17;10.52;;;9.23;;
11328;SDS011;5719;42.714;23.732;2022-09-12T05:26:45;11.25;;;8.45;;
11328;SDS011;5719;42.714;23.732;2022-09-12T05:29:12;11.82;;;9.05;;
11328;SDS011;5719;42.714;23.732;2022-09-12T05:31:39;9.93;;;8.93;;
11328;SDS011;5719;42.714;23.732;2022-09-12T05:34:07;9.88;;;8.88;;
11328;SDS011;5719;42.714;23.732;2022-09-12T05:36:35;20.58;;;10.55;;
11328;SDS011;5719;42.714;23.732;2022-09-12T05:39:02;11.80;;;10.07;;
11328;SDS011;5719;42.714;23.732;2022-09-12T05:41:30;13.93;;;9.90;;
11328;SDS011;5719;42.714;23.732;2022-09-12T05:43:59;11.52;;;9.68;;
11328;SDS011;5719;42.714;23.732;2022-09-12T05:46:28;12.20;;;9.68;;
11328;SDS011;5719;42.714;23.732;2022-09-12T05:48:55;10.35;;;9.25;;
11328;SDS011;5719;42.714;23.732;2022-09-12T05:51:24;12.13;;;9.50;;
11328;SDS011;5719;42.714;23.732;2022-09-12T05:53:53;12.25;;;9.65;;
11328;SDS011;5719;42.714;23.732;2022-09-12T05:56:22;9.00;;;8.07;;
11328;SDS011;5719;42.714;23.732;2022-09-12T05:58:52;14.15;;;8.40;;
11328;SDS011;5719;42.714;23.732;2022-09-12T06:01:20;9.73;;;8.40;;
11328;SDS011;5719;42.714;23.732;2022-09-12T06:03:49;11.80;;;8.57;;
11328;SDS011;5719;42.714;23.732;2022-09-12T06:06:18;12.73;;;9.18;;
11328;SDS011;5719;42.714;23.732;2022-09-12T06:08:48;9.20;;;8.23;;
11328;SDS011;5719;42.714;23.732;2022-09-12T06:11:17;10.38;;;8.02;;
11328;SDS011;5719;42.714;23.732;2022-09-12T06:13:45;10.15;;;7.80;;
11328;SDS011;5719;42.714;23.732;2022-09-12T06:16:12;8.40;;;7.50;;
11328;SDS011;5719;42.714;23.732;2022-09-12T06:18:41;8.02;;;6.72;;
11328;SDS011;5719;42.714;23.732;2022-09-12T06:21:12;7.82;;;6.25;;
11328;SDS011;5719;42.714;23.732;2022-09-12T06:23:39;6.93;;;5.90;;
11328;SDS011;5719;42.714;23.732;2022-09-12T06:26:09;6.82;;;5.63;;
11328;SDS011;5719;42.714;23.732;2022-09-12T06:28:37;7.65;;;5.35;;
11328;SDS011;5719;42.714;23.732;2022-09-12T06:31:05;5.05;;;4.65;;
11328;SDS011;5719;42.714;23.732;2022-09-12T06:33:34;5.00;;;4.60;;
11328;SDS011;5719;42.714;23.732;2022-09-12T06:36:02;5.60;;;4.38;;
11328;SDS011;5719;42.714;23.732;2022-09-12T06:38:30;5.22;;;4.72;;
11328;SDS011;5719;42.714;23.732;2022-09-12T06:40:57;4.80;;;4.40;;
11328;SDS011;5719;42.714;23.732;2022-09-12T06:43:27;8.95;;;4.47;;
11328;SDS011;5719;42.714;23.732;2022-09-12T06:45:54;7.50;;;4.03;;
11328;SDS011;5719;42.714;23.732;2022-09-12T06:48:21;4.63;;;4.00;;
11328;SDS011;5719;42.714;23.732;2022-09-12T06:50:55;4.43;;;4.03;;
11328;SDS011;5719;42.714;23.732;2022-09-12T06:53:24;7.07;;;4.07;;
11328;SDS011;5719;42.714;23.732;2022-09-12T06:55:55;4.43;;;4.13;;
11328;SDS011;5719;42.714;23.732;2022-09-12T06:58:23;3.72;;;3.40;;
11328;SDS011;5719;42.714;23.732;2022-09-12T07:00:52;4.32;;;3.58;;
11328;SDS011;5719;42.714;23.732;2022-09-12T07:03:20;4.80;;;3.28;;
11328;SDS011;5719;42.714;23.732;2022-09-12T07:05:46;7.93;;;3.75;;
11328;SDS011;5719;42.714;23.732;2022-09-12T07:08:13;4.38;;;4.00;;
11328;SDS011;5719;42.714;23.732;2022-09-12T07:10:40;7.75;;;4.22;;
11328;SDS011;5719;42.714;23.732;2022-09-12T07:13:07;3.78;;;3.47;;
11328;SDS011;5719;42.714;23.732;2022-09-12T07:15:34;4.28;;;3.78;;
11328;SDS011;5719;42.714;23.732;2022-09-12T07:18:02;5.07;;;3.13;;
11328;SDS011;5719;42.714;23.732;2022-09-12T07:20:29;3.67;;;3.38;;
11328;SDS011;5719;42.714;23.732;2022-09-12T07:22:58;3.33;;;3.10;;
11328;SDS011;5719;42.714;23.732;2022-09-12T07:25:25;3.97;;;3.38;;
11328;SDS011;5719;42.714;23.732;2022-09-12T07:27:52;6.95;;;3.35;;
11328;SDS011;5719;42.714;23.732;2022-09-12T07:30:19;9.18;;;4.43;;
11328;SDS011;5719;42.714;23.732;2022-09-12T07:32:46;4.50;;;4.10;;
11328;SDS011;5719;42.714;23.732;2022-09-12T07:35:18;4.22;;;3.83;;
11328;SDS011;5719;42.714;23.732;2022-09-12T07:37:45;6.20;;;3.97;;
11328;SDS011;5719;42.714;23.732;2022-09-12T07:40:11;10.30;;;4.60;;
11328;SDS011;5719;42.714;23.732;2022-09-12T07:42:38;3.88;;;3.55;;
11328;SDS011;5719;42.714;23.732;2022-09-12T07:45:05;3.72;;;3.45;;
11328;SDS011;5719;42.714;23.732;2022-09-12T07:47:33;3.75;;;3.40;;
11328;SDS011;5719;42.714;23.732;2022-09-12T07:50:00;3.78;;;3.58;;
11328;SDS011;5719;42.714;23.732;2022-09-12T07:52:29;4.57;;;3.80;;
11328;SDS011;5719;42.714;23.732;2022-09-12T07:54:55;6.03;;;3.67;;
11328;SDS011;5719;42.714;23.732;2022-09-12T07:57:22;7.38;;;3.55;;
11328;SDS011;5719;42.714;23.732;2022-09-12T07:59:49;4.20;;;3.80;;
11328;SDS011;5719;42.714;23.732;2022-09-12T08:02:16;3.92;;;3.63;;
11328;SDS011;5719;42.714;23.732;2022-09-12T08:04:44;4.80;;;4.40;;
11328;SDS011;5719;42.714;23.732;2022-09-12T08:07:12;4.45;;;4.13;;
11328;SDS011;5719;42.714;23.732;2022-09-12T08:09:40;8.07;;;4.40;;
11328;SDS011;5719;42.714;23.732;2022-09-12T08:12:07;6.18;;;4.65;;
11328;SDS011;5719;42.714;23.732;2022-09-12T08:14:34;4.93;;;3.97;;
11328;SDS011;5719;42.714;23.732;2022-09-12T08:17:01;8.90;;;4.13;;
11328;SDS011;5719;42.714;23.732;2022-09-12T08:19:28;6.38;;;4.20;;
11328;SDS011;5719;42.714;23.732;2022-09-12T08:21:55;4.45;;;4.05;;
11328;SDS011;5719;42.714;23.732;2022-09-12T08:24:22;5.15;;;4.13;;
11328;SDS011;5719;42.714;23.732;2022-09-12T08:26:51;5.28;;;3.97;;
11328;SDS011;5719;42.714;23.732;2022-09-12T08:29:18;4.05;;;3.65;;
11328;SDS011;5719;42.714;23.732;2022-09-12T08:31:45;6.03;;;3.65;;
11328;SDS011;5719;42.714;23.732;2022-09-12T08:34:12;3.83;;;3.53;;
11328;SDS011;5719;42.714;23.732;2022-09-12T08:36:41;3.53;;;3.15;;
11328;SDS011;5719;42.714;23.732;2022-09-12T08:39:10;3.20;;;3.00;;
11328;SDS011;5719;42.714;23.732;2022-09-12T08:41:39;4.00;;;3.38;;
11328;SDS011;5719;42.714;23.732;2022-09-12T08:44:15;3.42;;;3.22;;
11328;SDS011;5719;42.714;23.732;2022-09-12T08:47:08;6.85;;;3.42;;
11328;SDS011;5719;42.714;23.732;2022-09-12T08:49:45;4.35;;;2.97;;
11328;SDS011;5719;42.714;23.732;2022-09-12T08:52:20;3.50;;;3.00;;
11328;SDS011;5719;42.714;23.732;2022-09-12T08:54:51;3.42;;;3.22;;
11328;SDS011;5719;42.714;23.732;2022-09-12T08:57:18;5.38;;;3.20;;
11328;SDS011;5719;42.714;23.732;2022-09-12T08:59:47;3.30;;;2.33;;
11328;SDS011;5719;42.714;23.732;2022-09-12T09:02:29;2.58;;;2.47;;
11328;SDS011;5719;42.714;23.732;2022-09-12T09:05:10;6.00;;;3.20;;
11328;SDS011;5719;42.714;23.732;2022-09-12T09:10:47;3.83;;;3.45;;
11328;SDS011;5719;42.714;23.732;2022-09-12T09:16:25;2.42;;;2.28;;
11328;SDS011;5719;42.714;23.732;2022-09-12T09:18:56;2.75;;;2.55;;
11328;SDS011;5719;42.714;23.732;2022-09-12T09:21:28;3.03;;;2.45;;
11328;SDS011;5719;42.714;23.732;2022-09-12T09:24:01;2.72;;;2.53;;
11328;SDS011;5719;42.714;23.732;2022-09-12T09:26:36;4.40;;;2.88;;
11328;SDS011;5719;42.714;23.732;2022-09-12T09:29:10;3.05;;;2.85;;
11328;SDS011;5719;42.714;23.732;2022-09-12T09:31:43;3.20;;;3.00;;
11328;SDS011;5719;42.714;23.732;2022-09-12T09:34:14;3.13;;;2.92;;
11328;SDS011;5719;42.714;23.732;2022-09-12T09:36:47;3.50;;;3.30;;
11328;SDS011;5719;42.714;23.732;2022-09-12T09:39:19;3.30;;;3.00;;
11328;SDS011;5719;42.714;23.732;2022-09-12T09:42:03;3.58;;;3.17;;
11328;SDS011;5719;42.714;23.732;2022-09-12T09:44:38;2.90;;;2.65;;
11328;SDS011;5719;42.714;23.732;2022-09-12T09:47:08;2.70;;;2.60;;
11328;SDS011;5719;42.714;23.732;2022-09-12T09:49:37;3.05;;;2.72;;
11328;SDS011;5719;42.714;23.732;2022-09-12T09:52:04;2.60;;;2.40;;
11328;SDS011;5719;42.714;23.732;2022-09-12T09:54:34;2.90;;;2.47;;
11328;SDS011;5719;42.714;23.732;2022-09-12T09:57:08;2.60;;;2.40;;
11328;SDS011;5719;42.714;23.732;2022-09-12T10:00:19;3.03;;;2.40;;
11328;SDS011;5719;42.714;23.732;2022-09-12T10:03:03;6.88;;;2.60;;
11328;SDS011;5719;42.714;23.732;2022-09-12T10:05:47;3.35;;;2.30;;
11328;SDS011;5719;42.714;23.732;2022-09-12T10:08:19;2.53;;;2.30;;
11328;SDS011;5719;42.714;23.732;2022-09-12T10:10:58;4.93;;;2.08;;
11328;SDS011;5719;42.714;23.732;2022-09-12T10:13:29;2.30;;;2.20;;
11328;SDS011;5719;42.714;23.732;2022-09-12T10:16:02;3.35;;;2.67;;
11328;SDS011;5719;42.714;23.732;2022-09-12T10:18:34;2.80;;;2.60;;
11328;SDS011;5719;42.714;23.732;2022-09-12T10:21:11;3.25;;;2.80;;
11328;SDS011;5719;42.714;23.732;2022-09-12T10:23:46;4.27;;;2.87;;
11328;SDS011;5719;42.714;23.732;2022-09-12T10:26:18;3.10;;;2.83;;
11328;SDS011;5719;42.714;23.732;2022-09-12T10:28:48;3.55;;;3.25;;
11328;SDS011;5719;42.714;23.732;2022-09-12T10:31:22;3.13;;;3.03;;
11328;SDS011;5719;42.714;23.732;2022-09-12T10:33:54;3.30;;;3.10;;
11328;SDS011;5719;42.714;23.732;2022-09-12T10:36:24;3.42;;;2.60;;
11328;SDS011;5719;42.714;23.732;2022-09-12T10:39:00;3.30;;;3.10;;
11328;SDS011;5719;42.714;23.732;2022-09-12T10:41:33;3.20;;;3.00;;
11328;SDS011;5719;42.714;23.732;2022-09-12T10:46:34;4.32;;;3.67;;
11328;SDS011;5719;42.714;23.732;2022-09-12T10:49:18;3.70;;;3.40;;
11328;SDS011;5719;42.714;23.732;2022-09-12T10:51:47;3.70;;;3.50;;
11328;SDS011;5719;42.714;23.732;2022-09-12T10:54:15;4.03;;;3.25;;
11328;SDS011;5719;42.714;23.732;2022-09-12T10:56:47;4.25;;;3.83;;
11328;SDS011;5719;42.714;23.732;2022-09-12T10:59:29;3.88;;;3.58;;
11328;SDS011;5719;42.714;23.732;2022-09-12T11:02:11;4.55;;;3.85;;
11328;SDS011;5719;42.714;23.732;2022-09-12T11:04:49;4.18;;;3.88;;
11328;SDS011;5719;42.714;23.732;2022-09-12T11:07:31;4.20;;;3.80;;
11328;SDS011;5719;42.714;23.732;2022-09-12T11:12:55;4.35;;;3.60;;
11328;SDS011;5719;42.714;23.732;2022-09-12T11:15:41;3.80;;;3.50;;
11328;SDS011;5719;42.714;23.732;2022-09-12T11:18:31;4.13;;;3.83;;
11328;SDS011;5719;42.714;23.732;2022-09-12T11:21:21;5.80;;;3.85;;
11328;SDS011;5719;42.714;23.732;2022-09-12T11:24:05;6.57;;;4.03;;
11328;SDS011;5719;42.714;23.732;2022-09-12T11:26:58;4.05;;;3.75;;
11328;SDS011;5719;42.714;23.732;2022-09-12T11:29:37;4.15;;;3.70;;
11328;SDS011;5719;42.714;23.732;2022-09-12T11:32:18;4.00;;;3.70;;
11328;SDS011;5719;42.714;23.732;2022-09-12T11:35:11;4.78;;;4.38;;
11328;SDS011;5719;42.714;23.732;2022-09-12T11:37:48;4.30;;;4.00;;
11328;SDS011;5719;42.714;23.732;2022-09-12T11:40:26;6.03;;;4.32;;
11328;SDS011;5719;42.714;23.732;2022-09-12T11:42:58;5.07;;;4.63;;
11328;SDS011;5719;42.714;23.732;2022-09-12T11:45:34;4.78;;;4.40;;
11328;SDS011;5719;42.714;23.732;2022-09-12T11:48:05;6.25;;;5.05;;
11328;SDS011;5719;42.714;23.732;2022-09-12T11:50:38;5.65;;;4.72;;
11328;SDS011;5719;42.714;23.732;2022-09-12T11:53:10;4.95;;;4.55;;
11328;SDS011;5719;42.714;23.732;2022-09-12T11:55:45;6.43;;;4.70;;
11328;SDS011;5719;42.714;23.732;2022-09-12T11:58:18;5.72;;;4.45;;
11328;SDS011;5719;42.714;23.732;2022-09-12T12:00:50;6.35;;;5.15;;
11328;SDS011;5719;42.714;23.732;2022-09-12T12:03:23;6.07;;;5.45;;
11328;SDS011;5719;42.714;23.732;2022-09-12T12:05:56;7.95;;;5.47;;
11328;SDS011;5719;42.714;23.732;2022-09-12T12:08:31;6.90;;;5.40;;
11328;SDS011;5719;42.714;23.732;2022-09-12T12:11:03;5.50;;;5.10;;
11328;SDS011;5719;42.714;23.732;2022-09-12T12:13:33;7.28;;;5.40;;
11328;SDS011;5719;42.714;23.732;2022-09-12T12:16:04;5.65;;;5.25;;
11328;SDS011;5719;42.714;23.732;2022-09-12T12:18:35;10.27;;;5.97;;
11328;SDS011;5719;42.714;23.732;2022-09-12T12:21:17;5.80;;;5.30;;
11328;SDS011;5719;42.714;23.732;2022-09-12T12:24:02;9.43;;;5.90;;
11328;SDS011;5719;42.714;23.732;2022-09-12T12:26:54;8.70;;;5.60;;
11328;SDS011;5719;42.714;23.732;2022-09-12T12:29:37;17.63;;;5.68;;
11328;SDS011;5719;42.714;23.732;2022-09-12T12:32:19;6.22;;;5.72;;
11328;SDS011;5719;42.714;23.732;2022-09-12T12:34:50;9.68;;;5.88;;
11328;SDS011;5719;42.714;23.732;2022-09-12T12:40:22;5.85;;;5.00;;
11328;SDS011;5719;42.714;23.732;2022-09-12T12:43:01;5.38;;;4.97;;
11328;SDS011;5719;42.714;23.732;2022-09-12T12:46:00;5.88;;;5.38;;
11328;SDS011;5719;42.714;23.732;2022-09-12T12:51:36;5.25;;;4.70;;
11328;SDS011;5719;42.714;23.732;2022-09-12T12:54:27;4.38;;;4.07;;
11328;SDS011;5719;42.714;23.732;2022-09-12T12:57:01;4.63;;;4.22;;
11328;SDS011;5719;42.714;23.732;2022-09-12T12:59:46;6.13;;;4.57;;
11328;SDS011;5719;42.714;23.732;2022-09-12T13:02:21;4.10;;;3.90;;
11328;SDS011;5719;42.714;23.732;2022-09-12T13:04:53;4.88;;;4.20;;
11328;SDS011;5719;42.714;23.732;2022-09-12T13:07:24;4.78;;;4.35;;
11328;SDS011;5719;42.714;23.732;2022-09-12T13:09:55;4.47;;;4.07;;
11328;SDS011;5719;42.714;23.732;2022-09-12T13:12:25;5.95;;;4.53;;
11328;SDS011;5719;42.714;23.732;2022-09-12T13:14:55;5.13;;;4.28;;
11328;SDS011;5719;42.714;23.732;2022-09-12T13:17:25;4.40;;;3.97;;
11328;SDS011;5719;42.714;23.732;2022-09-12T13:20:03;4.38;;;4.07;;
11328;SDS011;5719;42.714;23.732;2022-09-12T13:22:43;3.20;;;3.00;;
11328;SDS011;5719;42.714;23.732;2022-09-12T13:25:19;3.63;;;3.20;;
11328;SDS011;5719;42.714;23.732;2022-09-12T13:27:56;3.55;;;3.25;;
11328;SDS011;5719;42.714;23.732;2022-09-12T13:30:29;2.78;;;2.67;;
11328;SDS011;5719;42.714;23.732;2022-09-12T13:33:06;2.95;;;2.75;;
11328;SDS011;5719;42.714;23.732;2022-09-12T13:35:45;2.80;;;2.70;;
11328;SDS011;5719;42.714;23.732;2022-09-12T13:38:25;3.72;;;3.42;;
11328;SDS011;5719;42.714;23.732;2022-09-12T13:41:12;3.20;;;3.00;;
11328;SDS011;5719;42.714;23.732;2022-09-12T13:43:50;3.92;;;3.13;;
11328;SDS011;5719;42.714;23.732;2022-09-12T13:46:21;3.80;;;3.47;;
11328;SDS011;5719;42.714;23.732;2022-09-12T13:48:54;8.80;;;3.63;;
11328;SDS011;5719;42.714;23.732;2022-09-12T13:51:22;4.22;;;4.00;;
11328;SDS011;5719;42.714;23.732;2022-09-12T13:53:52;4.00;;;3.70;;
11328;SDS011;5719;42.714;23.732;2022-09-12T13:56:22;3.97;;;3.63;;
11328;SDS011;5719;42.714;23.732;2022-09-12T13:58:51;5.00;;;3.60;;
11328;SDS011;5719;42.714;23.732;2022-09-12T14:01:21;12.85;;;4.20;;
11328;SDS011;5719;42.714;23.732;2022-09-12T14:03:49;4.10;;;3.90;;
11328;SDS011;5719;42.714;23.732;2022-09-12T14:06:35;4.30;;;3.97;;
11328;SDS011;5719;42.714;23.732;2022-09-12T14:09:11;4.82;;;3.92;;
11328;SDS011;5719;42.714;23.732;2022-09-12T14:11:39;3.67;;;3.47;;
11328;SDS011;5719;42.714;23.732;2022-09-12T14:14:15;4.65;;;4.25;;
11328;SDS011;5719;42.714;23.732;2022-09-12T14:16:46;5.70;;;3.85;;
11328;SDS011;5719;42.714;23.732;2022-09-12T14:19:13;5.07;;;4.53;;
11328;SDS011;5719;42.714;23.732;2022-09-12T14:21:43;4.70;;;4.35;;
11328;SDS011;5719;42.714;23.732;2022-09-12T14:24:11;4.22;;;3.60;;
11328;SDS011;5719;42.714;23.732;2022-09-12T14:26:40;5.22;;;4.20;;
11328;SDS011;5719;42.714;23.732;2022-09-12T14:29:11;5.13;;;4.30;;
11328;SDS011;5719;42.714;23.732;2022-09-12T14:31:41;4.60;;;4.30;;
11328;SDS011;5719;42.714;23.732;2022-09-12T14:34:10;5.80;;;4.38;;
11328;SDS011;5719;42.714;23.732;2022-09-12T14:36:40;4.80;;;4.50;;
11328;SDS011;5719;42.714;23.732;2022-09-12T14:39:17;8.05;;;4.53;;
11328;SDS011;5719;42.714;23.732;2022-09-12T14:41:47;4.85;;;4.45;;
11328;SDS011;5719;42.714;23.732;2022-09-12T14:44:17;5.28;;;4.70;;
11328;SDS011;5719;42.714;23.732;2022-09-12T14:46:47;6.32;;;5.10;;
11328;SDS011;5719;42.714;23.732;2022-09-12T14:49:16;5.50;;;5.10;;
11328;SDS011;5719;42.714;23.732;2022-09-12T14:51:52;5.38;;;4.88;;
11328;SDS011;5719;42.714;23.732;2022-09-12T15:00:18;6.10;;;5.47;;
11328;SDS011;5719;42.714;23.732;2022-09-12T15:02:47;5.85;;;5.00;;
11328;SDS011;5719;42.714;23.732;2022-09-12T15:05:25;5.45;;;5.05;;
11328;SDS011;5719;42.714;23.732;2022-09-12T15:07:54;5.35;;;4.95;;
11328;SDS011;5719;42.714;23.732;2022-09-12T15:10:24;5.05;;;4.57;;
11328;SDS011;5719;42.714;23.732;2022-09-12T15:13:11;7.00;;;4.70;;
11328;SDS011;5719;42.714;23.732;2022-09-12T15:15:42;5.70;;;4.85;;
11328;SDS011;5719;42.714;23.732;2022-09-12T15:18:10;4.88;;;4.53;;
11328;SDS011;5719;42.714;23.732;2022-09-12T15:20:38;5.13;;;4.68;;
11328;SDS011;5719;42.714;23.732;2022-09-12T15:23:09;5.07;;;4.68;;
11328;SDS011;5719;42.714;23.732;2022-09-12T15:25:41;5.30;;;4.80;;
11328;SDS011;5719;42.714;23.732;2022-09-12T15:28:12;5.57;;;5.15;;
11328;SDS011;5719;42.714;23.732;2022-09-12T15:30:43;5.35;;;4.85;;
11328;SDS011;5719;42.714;23.732;2022-09-12T15:33:11;8.88;;;4.70;;
11328;SDS011;5719;42.714;23.732;2022-09-12T15:35:39;10.68;;;4.68;;
11328;SDS011;5719;42.714;23.732;2022-09-12T15:38:06;5.20;;;4.80;;
11328;SDS011;5719;42.714;23.732;2022-09-12T15:40:33;4.68;;;4.38;;
11328;SDS011;5719;42.714;23.732;2022-09-12T15:43:00;4.50;;;4.30;;
11328;SDS011;5719;42.714;23.732;2022-09-12T15:45:29;5.22;;;4.90;;
11328;SDS011;5719;42.714;23.732;2022-09-12T15:47:58;5.30;;;4.90;;